This demonstration page uses our WeatherBlox Daily Observations layout. Learn more.

39.29038, -76.61219

Hourly Observations for January 5, 2019

Temp ( °F °C ) Dew Point ( °F °C ) Humidity (%) Winds ( mph kmh ) Pressure ( in mb ) Visibility ( mi km ) Precip ( " mm )
12:54 am 00:54 undefined 45 7.2 42 5.6 90 90 undefined N/A 29.62 1003 N/A 0.02 0.508
1:54 am 01:54 undefined 45 7.2 42 5.6 90 90 undefined N/A 29.59 1002 N/A 0 0
2:54 am 02:54 undefined 45 7.2 43 6.1 93 93 undefined N/A 29.56 1001 N/A 0 0
3:54 am 03:54 undefined 45 7.2 42 5.6 90 90 undefined N/A 32.45 1099 N/A 0 0
4:54 am 04:54 undefined 45 7.2 43 6.1 93 93 undefined N/A 32.45 1099 N/A 0.02 0.508
5:54 am 05:54 undefined 46 7.8 43 6.1 89 89 undefined N/A 32.42 1098 N/A 0 0
6:54 am 06:54 undefined 47 8.3 43 6.1 86 86 undefined N/A 32.42 1098 N/A 0 0
7:54 am 07:54 undefined 46 7.8 44 6.7 93 93 undefined N/A 32.42 1098 N/A 0 0
8:54 am 08:54 undefined 46 7.8 42 5.6 86 86 undefined N/A 32.42 1098 N/A 0 0
9:54 am 09:54 undefined 47 8.3 43 6.1 86 86 undefined N/A 32.45 1099 N/A 0 0
10:54 am 10:54 undefined 48 8.9 42 5.6 80 80 undefined N/A 32.45 1099 N/A 0 0
11:54 am 11:54 undefined 48 8.9 41 5 77 77 undefined N/A 32.45 1099 N/A 0 0
12:54 pm 12:54 undefined 48 8.9 41 5 77 77 undefined N/A 32.45 1099 N/A 0 0
1:54 pm 13:54 undefined 50 10 41 5 71 71 undefined N/A 29.53 1000 N/A 0 0
2:54 pm 14:54 undefined 48 8.9 42 5.6 80 80 undefined N/A 29.53 1000 N/A 0.02 0.508
3:54 pm 15:54 undefined 50 10 41 5 71 71 undefined N/A 29.62 1003 N/A 0 0
4:54 pm 16:54 undefined 52 11.1 39 3.9 61 61 undefined N/A 29.65 1004 N/A 0 0
5:54 pm 17:54 undefined 51 10.6 38 3.3 61 61 undefined N/A 29.68 1005 N/A 0 0
6:54 pm 18:54 undefined 51 10.6 36 2.2 56 56 undefined N/A 29.71 1006 N/A 0 0
7:54 pm 19:54 undefined 50 10 35 1.7 57 57 undefined N/A 29.77 1008 N/A 0 0
8:54 pm 20:54 undefined 49 9.4 35 1.7 59 59 undefined N/A 29.77 1008 N/A 0 0
9:54 pm 21:54 undefined 48 8.9 35 1.7 61 61 undefined N/A 29.8 1009 N/A 0 0
10:54 pm 22:54 undefined 47 8.3 35 1.7 63 63 undefined N/A 29.8 1009 N/A 0 0
11:54 pm 23:54 undefined 47 8.3 35 1.7 63 63 undefined N/A 29.8 1009 N/A 0 0

Powered by AerisWeather